Archival Weather

Chicago O'Hare International

Chicago, Illinois (KORD)

Report from: Saturday, March 5, 2022 11:15 PM CST
Current time: Saturday, February 4, 2023 9:59 PM CST

Current weather
Weather history
Weather forecast

Present weatherHeavy thunderstorm with rain
Temperature16.1°C (61.0°F)
Dew point12.2°C (54.0°F)
Winds 29 kts (14.9 m/s, 33.4 mph) West (260°)
Wind gusts 57 kts (29.3 m/s, 65.6 mph)
Peak wind 57 kts (29.3 m/s, 65.6 mph) West (280°) at 23:13
Visibility2 mi. (3.2 km)
Clouds Ceiling: Broken clouds 2,400 ft. (732 m)
Broken clouds with cumulonimbus 2,900 ft. (884 m)
Overcast 3,700 ft. (1,128 m)
Altimeter29.69 in.Hg (1005 mB)
PrecipitiationTrace
Precip. events Rain began 11:14 PM
Thunderstorm began 11:05 PM
Relative humidity78 %
Density altitude594 ft. (181 m)
Remarks System requires maintenance
Automated weather observing station with precipitation discriminator
Lightning observed
Pressure rising rapidly
Lightning observed: intra cloud, cloud to ground
Distant southwest north occasional overhead thunderstorm overhead moving east
Flight conditions Instrument Meteorological Conditions
Raw dataKORD 060515Z 26029G57KT 2SM +TSRA BKN024 BKN029CB OVC037 16/12 A2969 RMK AO2 PK WND 28057/0513 LTG DSNT SW-N RAB14 TSB05 PRESRR OCNL LTGICCG OHD TS OHD MOV E P0000 T01610122 $
An unhandled exception has occurred. See browser dev tools for details. Reload 🗙